Time;durP1;ratioP1;P1;durP2;ratioP2;P2;SDS_P1;SDS_P2;PMS_P1;PMS_P2;Temp;Humidity;BMP_temperature;BMP_pressure;BME280_temperature;BME280_humidity;BME280_pressure;Samples;Min_cycle;Max_cycle;Signal;HPM_P1;HPM_P2
2022/01/27 00:07:32;;;;;;;;;;;3.70;97.90;;;;;;5040815;28;19917;-69
2022/01/27 00:10:16;;;;;;;;;;;3.70;97.90;;;;;;5031833;28;19917;-69
2022/01/27 00:12:42;;;;;;;;;;;3.70;97.80;;;;;;5039600;28;19925;-69
2022/01/27 00:15:11;;;;;;;;;;;3.70;97.80;;;;;;5046196;28;20461;-69
2022/01/27 00:17:56;;;;;;;;;;;3.70;97.90;;;;;;5046402;28;19927;-69
2022/01/27 00:20:21;;;;;;;;;;;3.70;97.90;;;;;;5044520;28;19962;-69
2022/01/27 00:22:47;;;;;;;;;;;3.70;97.70;;;;;;5022926;28;20395;-68
2022/01/27 00:25:13;;;;;;;;;;;3.70;98.10;;;;;;5045849;28;19913;-69
2022/01/27 00:27:38;;;;;;;;;;;3.60;97.70;;;;;;5045608;28;19916;-68
2022/01/27 00:30:06;;;;;;;;;;;3.60;97.80;;;;;;5045234;28;19913;-70
2022/01/27 00:32:31;;;;;;;;;;;3.60;97.80;;;;;;5051762;28;19925;-69
2022/01/27 00:34:57;;;;;;;;;;;3.60;97.80;;;;;;5044000;28;20520;-69
2022/01/27 00:37:23;;;;;;;;;;;3.60;97.80;;;;;;5046399;28;19912;-70
2022/01/27 00:39:48;;;;;;;;;;;3.60;97.70;;;;;;5042389;28;19913;-69
2022/01/27 00:42:14;;;;;;;;;;;3.70;97.80;;;;;;5052647;28;19919;-69
2022/01/27 00:44:39;;;;;;;;;;;3.60;97.70;;;;;;5041443;28;19955;-69
2022/01/27 00:47:05;;;;;;;;;;;3.60;97.70;;;;;;5043503;28;19925;-69
2022/01/27 00:49:31;;;;;;;;;;;3.60;97.70;;;;;;5041978;28;19917;-69
2022/01/27 00:51:57;;;;;;;;;;;3.60;97.60;;;;;;5047855;28;19916;-69
2022/01/27 00:54:27;;;;;;;;;;;3.60;97.90;;;;;;5041845;28;19924;-69
2022/01/27 00:57:01;;;;;;;;;;;3.60;97.70;;;;;;5046298;28;19920;-69
2022/01/27 01:02:19;;;;;;;;;;;3.60;97.60;;;;;;5044153;28;20353;-69
2022/01/27 01:04:50;;;;;;;;;;;3.60;97.70;;;;;;5040381;28;19940;-69
2022/01/27 01:07:16;;;;;;;;;;;3.60;97.60;;;;;;5044897;28;19920;-69
2022/01/27 01:15:15;;;;;;;;;;;3.60;97.60;;;;;;5044224;28;19917;-69
2022/01/27 01:18:04;;;;;;;;;;;3.60;97.50;;;;;;5044973;28;19948;-69
2022/01/27 01:31:28;;;;;;;;;;;3.60;97.60;;;;;;5035700;28;19927;-69
2022/01/27 01:33:58;;;;;;;;;;;3.60;97.50;;;;;;5049979;28;20007;-69
2022/01/27 01:36:36;;;;;;;;;;;3.60;97.60;;;;;;5043361;28;19944;-69
2022/01/27 01:39:03;;;;;;;;;;;3.60;97.50;;;;;;5044260;28;19916;-69
2022/01/27 01:41:29;;;;;;;;;;;3.60;97.50;;;;;;5040378;28;19987;-70
2022/01/27 01:43:54;;;;;;;;;;;3.60;97.60;;;;;;5044368;28;20373;-69
2022/01/27 01:46:20;;;;;;;;;;;3.60;97.60;;;;;;5039225;28;19920;-69
2022/01/27 01:48:45;;;;;;;;;;;3.60;97.50;;;;;;5043995;28;19913;-69
2022/01/27 01:51:11;;;;;;;;;;;3.60;97.60;;;;;;5045413;28;19913;-69
2022/01/27 01:53:37;;;;;;;;;;;3.60;97.60;;;;;;5042636;28;20281;-69
2022/01/27 01:56:04;;;;;;;;;;;3.60;97.60;;;;;;5045968;28;19917;-70
2022/01/27 01:58:29;;;;;;;;;;;3.60;97.50;;;;;;5046473;28;19958;-69
2022/01/27 02:00:56;;;;;;;;;;;3.60;97.60;;;;;;5046882;28;19917;-69
2022/01/27 02:03:22;;;;;;;;;;;3.60;97.70;;;;;;5046168;28;20290;-69
2022/01/27 02:05:53;;;;;;;;;;;3.60;97.50;;;;;;5048518;28;19913;-69
2022/01/27 02:19:27;;;;;;;;;;;3.60;97.50;;;;;;4981548;28;20033;-69
2022/01/27 02:21:54;;;;;;;;;;;3.60;97.60;;;;;;5042984;28;19963;-69
2022/01/27 02:24:20;;;;;;;;;;;3.60;97.50;;;;;;5045445;28;19994;-69
2022/01/27 02:26:49;;;;;;;;;;;3.60;97.60;;;;;;5054380;28;19913;-69
2022/01/27 02:29:15;;;;;;;;;;;3.60;97.50;;;;;;5046262;28;19923;-69
2022/01/27 02:31:40;;;;;;;;;;;3.60;97.50;;;;;;5048366;28;19913;-69
2022/01/27 02:34:06;;;;;;;;;;;3.60;97.50;;;;;;5044030;28;20295;-69
2022/01/27 02:36:33;;;;;;;;;;;3.60;97.50;;;;;;5046426;28;19917;-70
2022/01/27 02:38:59;;;;;;;;;;;3.60;97.50;;;;;;5024694;28;19916;-69
2022/01/27 02:41:26;;;;;;;;;;;3.60;97.50;;;;;;5050898;28;19913;-69
2022/01/27 02:43:51;;;;;;;;;;;3.60;97.40;;;;;;5050892;28;19913;-69
2022/01/27 02:46:21;;;;;;;;;;;3.60;97.50;;;;;;5046410;28;20545;-69
2022/01/27 02:48:47;;;;;;;;;;;3.60;97.40;;;;;;5046741;28;20000;-69
2022/01/27 02:51:12;;;;;;;;;;;3.60;97.50;;;;;;5046173;28;20245;-69
2022/01/27 02:53:38;;;;;;;;;;;3.60;97.50;;;;;;5049900;28;19927;-69
2022/01/27 02:56:03;;;;;;;;;;;3.60;97.40;;;;;;5045782;28;19916;-69
2022/01/27 02:58:29;;;;;;;;;;;3.50;97.40;;;;;;5043455;28;20016;-69
2022/01/27 03:00:54;;;;;;;;;;;3.60;97.50;;;;;;5044224;28;19921;-69
2022/01/27 03:03:20;;;;;;;;;;;3.50;97.50;;;;;;5047820;28;20366;-69
2022/01/27 03:05:45;;;;;;;;;;;3.60;97.50;;;;;;5045238;28;19923;-69
2022/01/27 03:08:11;;;;;;;;;;;3.60;97.50;;;;;;5053980;28;19940;-69
2022/01/27 03:10:44;;;;;;;;;;;3.50;97.30;;;;;;5045947;28;19913;-69
2022/01/27 03:13:09;;;;;;;;;;;3.60;97.50;;;;;;5047069;28;20058;-69
2022/01/27 03:15:35;;;;;;;;;;;3.50;97.50;;;;;;5044472;28;19921;-69
2022/01/27 03:18:00;;;;;;;;;;;3.60;97.50;;;;;;5030266;28;19917;-69
2022/01/27 03:20:33;;;;;;;;;;;3.60;97.50;;;;;;5028977;28;19917;-69
2022/01/27 03:22:59;;;;;;;;;;;3.60;97.50;;;;;;5045290;28;20305;-70
2022/01/27 03:25:24;;;;;;;;;;;3.60;97.50;;;;;;5038414;28;19923;-69
2022/01/27 03:27:50;;;;;;;;;;;3.60;97.50;;;;;;5044733;28;19916;-69
2022/01/27 03:30:17;;;;;;;;;;;3.60;97.50;;;;;;5045203;28;19996;-69
2022/01/27 03:32:43;;;;;;;;;;;3.60;97.50;;;;;;5044552;28;19988;-69
2022/01/27 03:35:09;;;;;;;;;;;3.60;97.50;;;;;;5049121;28;20263;-69
2022/01/27 03:37:34;;;;;;;;;;;3.60;97.50;;;;;;5044796;28;19920;-69
2022/01/27 03:40:00;;;;;;;;;;;3.60;97.50;;;;;;5044865;28;19917;-69
2022/01/27 03:42:27;;;;;;;;;;;3.60;97.50;;;;;;5039322;28;20362;-69
2022/01/27 03:44:52;;;;;;;;;;;3.60;97.50;;;;;;5048129;28;19916;-69
2022/01/27 03:47:17;;;;;;;;;;;3.60;97.40;;;;;;5041979;28;19927;-69
2022/01/27 03:49:43;;;;;;;;;;;3.60;97.50;;;;;;5046537;28;19913;-69
2022/01/27 03:52:08;;;;;;;;;;;3.60;97.50;;;;;;5041751;28;19952;-69
2022/01/27 03:54:34;;;;;;;;;;;3.60;97.50;;;;;;5043924;28;19921;-69
2022/01/27 03:57:00;;;;;;;;;;;3.60;97.50;;;;;;5042913;28;19924;-69
2022/01/27 03:59:26;;;;;;;;;;;3.60;97.40;;;;;;5042026;28;19947;-69
2022/01/27 04:01:52;;;;;;;;;;;3.60;97.50;;;;;;5043623;28;20293;-69
2022/01/27 04:04:18;;;;;;;;;;;3.60;97.50;;;;;;5043512;28;19931;-69
2022/01/27 04:06:44;;;;;;;;;;;3.60;97.50;;;;;;5043372;28;19958;-69
2022/01/27 04:09:10;;;;;;;;;;;3.60;97.50;;;;;;5045159;28;19942;-69
2022/01/27 04:11:36;;;;;;;;;;;3.60;97.50;;;;;;5045257;28;19924;-69
2022/01/27 04:14:02;;;;;;;;;;;3.60;97.50;;;;;;5044374;28;20606;-69
2022/01/27 04:16:27;;;;;;;;;;;3.60;97.40;;;;;;5043507;28;19939;-69
2022/01/27 04:18:53;;;;;;;;;;;3.60;97.50;;;;;;5045520;28;19928;-69
2022/01/27 04:21:19;;;;;;;;;;;3.60;97.50;;;;;;5043019;28;20709;-69
2022/01/27 04:23:45;;;;;;;;;;;3.60;97.50;;;;;;5044857;28;19920;-69
2022/01/27 04:26:13;;;;;;;;;;;3.60;97.50;;;;;;5028104;28;20502;-69
2022/01/27 04:28:39;;;;;;;;;;;3.60;97.40;;;;;;5043529;28;19917;-69
2022/01/27 04:31:07;;;;;;;;;;;3.60;97.40;;;;;;5043682;28;20011;-69
2022/01/27 04:33:35;;;;;;;;;;;3.60;97.50;;;;;;5023292;28;20039;-69
2022/01/27 04:36:05;;;;;;;;;;;3.60;97.50;;;;;;5043789;28;19955;-69
2022/01/27 04:38:38;;;;;;;;;;;;;;;;;;;;;
2022/01/27 04:43:37;;;;;;;;;;;3.60;97.50;;;;;;5041673;28;19916;-69
2022/01/27 04:48:34;;;;;;;;;;;3.60;97.50;;;;;;5047128;28;20015;-69
2022/01/27 04:51:06;;;;;;;;;;;3.60;97.50;;;;;;5045089;28;19927;-69
2022/01/27 04:53:37;;;;;;;;;;;3.60;97.50;;;;;;5041020;28;19920;-69
2022/01/27 04:56:02;;;;;;;;;;;3.60;97.40;;;;;;5042774;28;19917;-69
2022/01/27 04:58:33;;;;;;;;;;;3.60;97.50;;;;;;5042256;28;19916;-69
2022/01/27 05:01:02;;;;;;;;;;;3.60;97.40;;;;;;5038614;28;19939;-69
2022/01/27 05:06:02;;;;;;;;;;;3.60;97.50;;;;;;5041767;28;19995;-69
2022/01/27 05:08:28;;;;;;;;;;;3.70;97.50;;;;;;5047851;28;20004;-69
2022/01/27 05:11:18;;;;;;;;;;;3.60;97.50;;;;;;5042812;28;19917;-69
2022/01/27 05:16:33;;;;;;;;;;;3.70;97.50;;;;;;5017983;28;20542;-69
2022/01/27 05:18:59;;;;;;;;;;;3.70;97.50;;;;;;5057601;28;19921;-69
2022/01/27 05:21:25;;;;;;;;;;;3.60;97.50;;;;;;5045380;28;20362;-70
2022/01/27 05:23:50;;;;;;;;;;;3.70;97.50;;;;;;5041113;28;19944;-69
2022/01/27 05:26:16;;;;;;;;;;;3.70;97.50;;;;;;5043011;28;19955;-69
2022/01/27 05:28:42;;;;;;;;;;;3.70;97.50;;;;;;5046415;28;19974;-69
2022/01/27 05:31:07;;;;;;;;;;;3.70;97.50;;;;;;5047354;28;20027;-69
2022/01/27 05:33:33;;;;;;;;;;;3.70;97.50;;;;;;5046299;28;19956;-69
2022/01/27 05:35:58;;;;;;;;;;;3.70;97.50;;;;;;5041375;28;20396;-69
2022/01/27 05:38:24;;;;;;;;;;;3.70;97.50;;;;;;5047553;28;20633;-68
2022/01/27 05:40:49;;;;;;;;;;;3.70;97.50;;;;;;5044164;28;19917;-69
2022/01/27 05:43:15;;;;;;;;;;;3.70;97.50;;;;;;5047563;28;19916;-69
2022/01/27 05:45:40;;;;;;;;;;;3.70;97.50;;;;;;5047456;28;19917;-69
2022/01/27 05:48:06;;;;;;;;;;;3.70;97.50;;;;;;5047539;28;19920;-69
2022/01/27 05:50:32;;;;;;;;;;;3.70;97.50;;;;;;5046726;28;19958;-69
2022/01/27 05:52:57;;;;;;;;;;;3.70;97.50;;;;;;5047780;28;20020;-69
2022/01/27 05:55:23;;;;;;;;;;;3.70;97.50;;;;;;5027515;28;19924;-69
2022/01/27 05:57:49;;;;;;;;;;;3.70;97.50;;;;;;5050552;28;19924;-69
2022/01/27 06:00:14;;;;;;;;;;;3.70;97.50;;;;;;5045206;28;20062;-69
2022/01/27 06:02:40;;;;;;;;;;;3.70;97.80;;;;;;5046487;28;20725;-69
2022/01/27 06:05:06;;;;;;;;;;;3.80;97.60;;;;;;5047781;28;20474;-69
2022/01/27 06:07:31;;;;;;;;;;;3.80;97.50;;;;;;5045526;28;19970;-69
2022/01/27 06:09:57;;;;;;;;;;;3.70;97.80;;;;;;5046411;28;20335;-69
2022/01/27 06:12:22;;;;;;;;;;;3.70;97.50;;;;;;5045650;28;19912;-69
2022/01/27 06:14:48;;;;;;;;;;;3.70;97.60;;;;;;5046875;28;20484;-69
2022/01/27 06:17:13;;;;;;;;;;;3.80;97.60;;;;;;5049524;28;19917;-69
2022/01/27 06:19:43;;;;;;;;;;;3.80;97.60;;;;;;5046870;28;19920;-69
2022/01/27 06:22:11;;;;;;;;;;;3.80;97.60;;;;;;5044996;28;20470;-69
2022/01/27 06:24:44;;;;;;;;;;;3.80;97.60;;;;;;5028396;28;20278;-69
2022/01/27 06:27:10;;;;;;;;;;;3.80;97.60;;;;;;5047346;28;20019;-69
2022/01/27 06:29:36;;;;;;;;;;;3.80;97.60;;;;;;5046633;28;19921;-70
2022/01/27 06:32:02;;;;;;;;;;;3.80;97.60;;;;;;5044797;28;19943;-69
2022/01/27 06:34:28;;;;;;;;;;;3.80;97.60;;;;;;5048909;28;19928;-69
2022/01/27 06:36:53;;;;;;;;;;;3.80;97.60;;;;;;5061363;28;20509;-69
2022/01/27 06:39:19;;;;;;;;;;;3.80;97.60;;;;;;5045784;28;20351;-69
2022/01/27 06:41:45;;;;;;;;;;;3.80;97.60;;;;;;5039969;28;20443;-69
2022/01/27 06:44:10;;;;;;;;;;;3.80;97.60;;;;;;5045763;28;19956;-69
2022/01/27 06:46:36;;;;;;;;;;;3.80;97.60;;;;;;5045055;28;19975;-69
2022/01/27 06:49:02;;;;;;;;;;;3.80;97.60;;;;;;5041346;28;19960;-69
2022/01/27 06:51:29;;;;;;;;;;;3.80;97.60;;;;;;5046338;28;19931;-69
2022/01/27 06:53:54;;;;;;;;;;;3.80;97.60;;;;;;5044119;28;19917;-69
2022/01/27 06:56:20;;;;;;;;;;;3.80;97.60;;;;;;5043298;28;19921;-69
2022/01/27 06:58:45;;;;;;;;;;;3.80;97.60;;;;;;5045815;28;19999;-69
2022/01/27 07:01:11;;;;;;;;;;;3.90;97.60;;;;;;5048430;28;20011;-69
2022/01/27 07:03:36;;;;;;;;;;;3.80;97.60;;;;;;5042957;28;20368;-69
2022/01/27 07:06:02;;;;;;;;;;;3.80;97.60;;;;;;5044351;28;19920;-69
2022/01/27 07:08:27;;;;;;;;;;;3.80;97.60;;;;;;5046386;28;19927;-70
2022/01/27 07:10:53;;;;;;;;;;;3.90;97.70;;;;;;5048784;28;19917;-69
2022/01/27 07:13:18;;;;;;;;;;;3.90;97.60;;;;;;5043684;28;19924;-69
2022/01/27 07:15:44;;;;;;;;;;;3.90;97.70;;;;;;5049282;28;20387;-69
2022/01/27 07:18:09;;;;;;;;;;;3.90;97.60;;;;;;5043200;28;19921;-69
2022/01/27 07:20:36;;;;;;;;;;;3.90;97.60;;;;;;5046427;28;19924;-69
2022/01/27 07:23:01;;;;;;;;;;;3.90;97.60;;;;;;5045395;28;19919;-69
2022/01/27 07:25:27;;;;;;;;;;;3.90;97.60;;;;;;5048819;28;19913;-69
2022/01/27 07:27:52;;;;;;;;;;;3.90;97.70;;;;;;5045438;28;19916;-69
2022/01/27 07:30:18;;;;;;;;;;;3.90;97.70;;;;;;5044718;28;19912;-69
2022/01/27 07:32:43;;;;;;;;;;;3.90;97.70;;;;;;5045054;28;19924;-69
2022/01/27 07:35:09;;;;;;;;;;;4.00;97.70;;;;;;5045294;28;19917;-69
2022/01/27 07:37:35;;;;;;;;;;;3.90;97.70;;;;;;5046379;28;20070;-69
2022/01/27 07:40:00;;;;;;;;;;;4.00;97.70;;;;;;5043731;28;19955;-69
2022/01/27 07:42:26;;;;;;;;;;;4.00;97.70;;;;;;5045762;28;19927;-69
2022/01/27 07:44:51;;;;;;;;;;;4.00;97.70;;;;;;5043040;28;19943;-69
2022/01/27 07:47:17;;;;;;;;;;;4.00;97.80;;;;;;5044125;28;19925;-69
2022/01/27 07:49:42;;;;;;;;;;;4.00;97.80;;;;;;5060740;28;20403;-69
2022/01/27 07:52:08;;;;;;;;;;;4.00;97.70;;;;;;5051761;28;19916;-69
2022/01/27 07:54:33;;;;;;;;;;;4.00;97.90;;;;;;5042735;28;19928;-69
2022/01/27 07:56:58;;;;;;;;;;;4.00;98.00;;;;;;5044255;28;20577;-69
2022/01/27 07:59:24;;;;;;;;;;;4.00;97.80;;;;;;5043754;28;19923;-69
2022/01/27 08:01:49;;;;;;;;;;;4.00;97.80;;;;;;5044388;28;20484;-69
2022/01/27 08:04:15;;;;;;;;;;;4.00;97.90;;;;;;5043195;28;19956;-69
2022/01/27 08:06:40;;;;;;;;;;;4.10;97.90;;;;;;5042211;28;19917;-69
2022/01/27 08:09:06;;;;;;;;;;;4.10;97.90;;;;;;5027559;28;19924;-69
2022/01/27 08:11:32;;;;;;;;;;;4.10;98.00;;;;;;5042693;28;19952;-69
2022/01/27 08:13:57;;;;;;;;;;;4.10;98.00;;;;;;5044483;28;19921;-69
2022/01/27 08:16:23;;;;;;;;;;;4.10;98.00;;;;;;5042789;28;20461;-69
2022/01/27 08:18:48;;;;;;;;;;;4.10;98.00;;;;;;5046736;28;19924;-69
2022/01/27 08:21:14;;;;;;;;;;;4.10;98.00;;;;;;5042913;28;19916;-69
2022/01/27 08:23:42;;;;;;;;;;;4.10;98.00;;;;;;5044030;28;19975;-69
2022/01/27 08:26:11;;;;;;;;;;;4.10;98.00;;;;;;5042187;28;19956;-69
2022/01/27 08:28:51;;;;;;;;;;;4.10;98.00;;;;;;5050065;28;19996;-69
2022/01/27 08:31:17;;;;;;;;;;;4.10;98.00;;;;;;5023921;28;19923;-69
2022/01/27 08:33:43;;;;;;;;;;;4.10;98.00;;;;;;5038083;28;19921;-69
2022/01/27 08:36:08;;;;;;;;;;;4.20;98.10;;;;;;5041455;28;19917;-69
2022/01/27 08:38:36;;;;;;;;;;;4.10;98.10;;;;;;5048409;28;20514;-69
2022/01/27 08:41:02;;;;;;;;;;;4.10;98.10;;;;;;5042835;28;19917;-69
2022/01/27 08:43:28;;;;;;;;;;;4.10;98.20;;;;;;5027756;28;19927;-69
2022/01/27 08:45:53;;;;;;;;;;;4.20;98.20;;;;;;5038693;28;19917;-69
2022/01/27 08:48:21;;;;;;;;;;;4.20;98.20;;;;;;5042406;28;19917;-69
2022/01/27 08:50:53;;;;;;;;;;;4.20;98.30;;;;;;5042202;28;19921;-69
2022/01/27 08:53:19;;;;;;;;;;;4.20;98.20;;;;;;5040389;28;19928;-69
2022/01/27 08:55:46;;;;;;;;;;;4.20;98.30;;;;;;5046946;28;19917;-69
2022/01/27 08:58:12;;;;;;;;;;;4.20;98.20;;;;;;5040619;28;19916;-69
2022/01/27 09:00:37;;;;;;;;;;;4.20;98.30;;;;;;5047643;28;19927;-69
2022/01/27 09:03:03;;;;;;;;;;;4.20;98.30;;;;;;5042478;28;19921;-69
2022/01/27 09:05:29;;;;;;;;;;;4.20;98.30;;;;;;5051069;28;19948;-69
2022/01/27 09:07:57;;;;;;;;;;;4.20;98.20;;;;;;5046138;28;19917;-69
2022/01/27 09:10:31;;;;;;;;;;;4.20;98.30;;;;;;5055307;28;20630;-69
2022/01/27 09:13:04;;;;;;;;;;;4.30;98.40;;;;;;5045316;28;20557;-69
2022/01/27 09:15:29;;;;;;;;;;;4.30;98.30;;;;;;5048157;28;19912;-68
2022/01/27 09:17:56;;;;;;;;;;;4.30;98.50;;;;;;5045765;28;20300;-69
2022/01/27 09:20:22;;;;;;;;;;;4.30;98.50;;;;;;5050968;28;19951;-69
2022/01/27 09:22:48;;;;;;;;;;;4.30;98.40;;;;;;5044550;28;19972;-69
2022/01/27 09:25:19;;;;;;;;;;;4.30;98.40;;;;;;5047707;28;19912;-68
2022/01/27 09:27:46;;;;;;;;;;;4.30;98.60;;;;;;5046442;28;19921;-69
2022/01/27 09:30:12;;;;;;;;;;;4.30;98.60;;;;;;5046331;28;19923;-69
2022/01/27 09:32:38;;;;;;;;;;;4.30;98.70;;;;;;5046872;28;20425;-69
2022/01/27 09:35:04;;;;;;;;;;;4.30;98.60;;;;;;5045553;28;19916;-69
2022/01/27 09:37:30;;;;;;;;;;;4.30;98.60;;;;;;5051143;28;19923;-69
2022/01/27 09:39:55;;;;;;;;;;;4.30;98.60;;;;;;5045381;28;19916;-69
2022/01/27 09:42:23;;;;;;;;;;;4.30;98.60;;;;;;5046594;28;19917;-69
2022/01/27 09:44:52;;;;;;;;;;;4.40;98.60;;;;;;5046101;28;20673;-69
2022/01/27 09:47:19;;;;;;;;;;;4.40;98.60;;;;;;5050415;28;19925;-69
2022/01/27 09:50:04;;;;;;;;;;;4.40;98.80;;;;;;5029092;28;19920;-69
2022/01/27 09:52:29;;;;;;;;;;;4.40;98.60;;;;;;5032676;28;19916;-69
2022/01/27 09:54:55;;;;;;;;;;;4.40;98.60;;;;;;5044293;28;19928;-69
2022/01/27 09:57:20;;;;;;;;;;;4.40;98.70;;;;;;5052343;28;20034;-69
2022/01/27 09:59:46;;;;;;;;;;;4.40;98.70;;;;;;5046035;28;20259;-69
2022/01/27 10:02:16;;;;;;;;;;;4.50;98.80;;;;;;5056989;28;20294;-69
2022/01/27 10:04:50;;;;;;;;;;;4.50;98.70;;;;;;5043653;28;20366;-69
2022/01/27 10:07:18;;;;;;;;;;;4.50;98.80;;;;;;5032586;28;19956;-69
2022/01/27 10:09:56;;;;;;;;;;;4.50;98.70;;;;;;5042647;28;19921;-70
2022/01/27 10:12:36;;;;;;;;;;;4.50;98.70;;;;;;5050688;28;19916;-69
2022/01/27 10:15:12;;;;;;;;;;;4.50;98.80;;;;;;5042966;28;19921;-69
2022/01/27 10:17:40;;;;;;;;;;;4.50;98.80;;;;;;5047507;28;19916;-68
2022/01/27 10:20:18;;;;;;;;;;;4.60;98.80;;;;;;5040230;28;19916;-69
2022/01/27 10:23:02;;;;;;;;;;;4.60;99.00;;;;;;5051228;28;19958;-69
2022/01/27 10:25:33;;;;;;;;;;;4.60;98.90;;;;;;5040628;28;19913;-69
2022/01/27 10:28:09;;;;;;;;;;;4.60;98.70;;;;;;5056668;28;19918;-69
2022/01/27 10:33:00;;;;;;;;;;;4.60;98.90;;;;;;5048532;28;20609;-69
2022/01/27 10:35:27;;;;;;;;;;;4.60;98.90;;;;;;5046294;28;19959;-69
2022/01/27 10:37:58;;;;;;;;;;;4.60;98.80;;;;;;5046335;28;20373;-69
2022/01/27 10:40:27;;;;;;;;;;;4.60;98.90;;;;;;5042971;28;20032;-69
2022/01/27 10:43:00;;;;;;;;;;;4.60;98.80;;;;;;5044090;28;20335;-69
2022/01/27 10:45:26;;;;;;;;;;;4.60;98.80;;;;;;5047712;28;19917;-69
2022/01/27 10:47:51;;;;;;;;;;;4.60;98.90;;;;;;5044768;28;19921;-69
2022/01/27 10:50:17;;;;;;;;;;;4.70;98.90;;;;;;5049725;28;20611;-69
2022/01/27 10:52:50;;;;;;;;;;;4.70;98.90;;;;;;5044689;28;19912;-69
2022/01/27 10:55:17;;;;;;;;;;;4.70;98.90;;;;;;5049842;28;19916;-69
2022/01/27 10:57:49;;;;;;;;;;;4.70;98.90;;;;;;5060072;28;19996;-69
2022/01/27 11:00:16;;;;;;;;;;;4.70;98.90;;;;;;5048448;28;19917;-69
2022/01/27 11:02:52;;;;;;;;;;;4.70;98.90;;;;;;5043057;28;20042;-69
2022/01/27 11:05:18;;;;;;;;;;;4.70;98.90;;;;;;5051110;28;19944;-69
2022/01/27 11:07:44;;;;;;;;;;;4.80;99.00;;;;;;5043419;28;19917;-69
2022/01/27 11:10:10;;;;;;;;;;;4.80;99.00;;;;;;5046846;28;19912;-69
2022/01/27 11:12:36;;;;;;;;;;;4.80;98.90;;;;;;5042401;28;19927;-69
2022/01/27 11:15:01;;;;;;;;;;;4.80;99.00;;;;;;5029592;28;20196;-69
2022/01/27 11:17:32;;;;;;;;;;;4.80;99.10;;;;;;5044192;28;19912;-69
2022/01/27 11:20:04;;;;;;;;;;;4.80;99.00;;;;;;5052175;28;20293;-69
2022/01/27 11:27:33;;;;;;;;;;;4.80;99.00;;;;;;5044871;28;20557;-69
2022/01/27 11:30:05;;;;;;;;;;;4.80;99.00;;;;;;5044311;28;19912;-69
2022/01/27 11:32:34;;;;;;;;;;;4.80;99.00;;;;;;5048710;28;19917;-69
2022/01/27 11:34:59;;;;;;;;;;;4.80;99.00;;;;;;5042080;28;19948;-69
2022/01/27 11:37:35;;;;;;;;;;;4.80;99.10;;;;;;5046375;28;19959;-69
2022/01/27 11:40:02;;;;;;;;;;;4.80;99.10;;;;;;5042782;28;20512;-69
2022/01/27 11:42:34;;;;;;;;;;;4.80;99.00;;;;;;5028519;28;19912;-69
2022/01/27 11:45:18;;;;;;;;;;;4.80;99.20;;;;;;5041424;28;19924;-69
2022/01/27 11:47:51;;;;;;;;;;;4.90;99.10;;;;;;5052911;27;19948;-69
2022/01/27 11:52:59;;;;;;;;;;;4.90;99.20;;;;;;5068503;28;20655;-69
2022/01/27 11:55:24;;;;;;;;;;;4.90;99.20;;;;;;5059549;28;19999;-69
2022/01/27 11:57:54;;;;;;;;;;;4.90;99.20;;;;;;5061029;28;20089;-69
2022/01/27 12:00:24;;;;;;;;;;;4.90;99.20;;;;;;5057664;28;20610;-69
2022/01/27 12:03:12;;;;;;;;;;;4.90;99.20;;;;;;5067454;28;19919;-69
2022/01/27 12:05:40;;;;;;;;;;;4.90;99.30;;;;;;5056179;28;19920;-69
2022/01/27 12:08:14;;;;;;;;;;;5.00;99.30;;;;;;5064891;28;19917;-69
2022/01/27 12:11:02;;;;;;;;;;;5.00;99.50;;;;;;5058677;28;19917;-69
2022/01/27 12:16:36;;;;;;;;;;;5.00;99.10;;;;;;5060383;28;19927;-69
2022/01/27 12:18:59;;;;;;;;;;;5.00;99.10;;;;;;5068236;28;20544;-69
2022/01/27 12:21:27;;;;;;;;;;;5.00;99.30;;;;;;5059043;28;19923;-69
2022/01/27 12:24:20;;;;;;;;;;;5.10;99.30;;;;;;5053871;28;20381;-69
2022/01/27 12:26:48;;;;;;;;;;;5.00;99.20;;;;;;5058217;28;19916;-69
2022/01/27 12:29:23;;;;;;;;;;;5.00;99.20;;;;;;5062351;28;20497;-69
2022/01/27 12:31:49;;;;;;;;;;;5.00;99.20;;;;;;5057876;28;19940;-69
2022/01/27 12:34:15;;;;;;;;;;;5.10;99.30;;;;;;5061850;28;20626;-69
2022/01/27 12:37:01;;;;;;;;;;;5.00;99.30;;;;;;5058522;28;20013;-69
2022/01/27 12:39:27;;;;;;;;;;;5.10;99.40;;;;;;5053331;28;19956;-69
2022/01/27 12:41:54;;;;;;;;;;;5.10;99.20;;;;;;5060393;28;19994;-69
2022/01/27 12:44:21;;;;;;;;;;;5.10;99.50;;;;;;5068781;28;20421;-70
2022/01/27 12:47:06;;;;;;;;;;;5.10;99.20;;;;;;5070509;28;20023;-69
2022/01/27 12:49:37;;;;;;;;;;;5.10;99.20;;;;;;5076691;28;20006;-69
2022/01/27 12:52:06;;;;;;;;;;;5.10;99.30;;;;;;5076270;28;19920;-69
2022/01/27 12:54:32;;;;;;;;;;;5.10;99.30;;;;;;5085962;28;19908;-69
2022/01/27 12:56:57;;;;;;;;;;;5.10;99.10;;;;;;5073892;28;20384;-69
2022/01/27 12:59:23;;;;;;;;;;;5.10;99.20;;;;;;5067888;28;19999;-69
2022/01/27 13:01:59;;;;;;;;;;;5.10;99.20;;;;;;5065167;28;19954;-69
2022/01/27 13:04:25;;;;;;;;;;;5.20;99.40;;;;;;5061232;28;19944;-69
2022/01/27 13:06:53;;;;;;;;;;;5.20;99.30;;;;;;5065106;28;19916;-69
2022/01/27 13:09:18;;;;;;;;;;;5.20;99.20;;;;;;5056123;28;19908;-70
2022/01/27 13:11:46;;;;;;;;;;;5.20;99.20;;;;;;5068552;28;20531;-69
2022/01/27 13:14:11;;;;;;;;;;;5.20;99.30;;;;;;5065376;28;19916;-69
2022/01/27 13:16:41;;;;;;;;;;;5.20;99.40;;;;;;5061707;28;19924;-69
2022/01/27 13:19:18;;;;;;;;;;;5.20;99.40;;;;;;5062846;28;20442;-69
2022/01/27 13:21:47;;;;;;;;;;;5.20;99.30;;;;;;5075665;28;19912;-69
2022/01/27 13:24:15;;;;;;;;;;;5.20;99.30;;;;;;5063214;28;19920;-69
2022/01/27 13:26:45;;;;;;;;;;;5.20;99.30;;;;;;5069055;28;19917;-69
2022/01/27 13:29:14;;;;;;;;;;;5.20;99.20;;;;;;5059230;28;20003;-69
2022/01/27 13:31:40;;;;;;;;;;;5.30;99.20;;;;;;5045140;28;19943;-69
2022/01/27 13:34:05;;;;;;;;;;;5.20;99.10;;;;;;5060904;28;20282;-69
2022/01/27 13:36:36;;;;;;;;;;;5.20;99.10;;;;;;5072778;28;19913;-69
2022/01/27 13:41:39;;;;;;;;;;;5.30;99.30;;;;;;5064272;28;19927;-69
2022/01/27 13:44:07;;;;;;;;;;;5.30;99.50;;;;;;5064629;28;19919;-69
2022/01/27 13:46:35;;;;;;;;;;;5.30;99.20;;;;;;5068005;28;20345;-70
2022/01/27 13:49:04;;;;;;;;;;;5.30;99.20;;;;;;5066112;28;19923;-69
2022/01/27 13:51:30;;;;;;;;;;;5.30;99.20;;;;;;5065273;28;19954;-69
2022/01/27 13:53:57;;;;;;;;;;;5.30;99.30;;;;;;5046613;28;19940;-69
2022/01/27 13:56:23;;;;;;;;;;;5.30;99.40;;;;;;5064770;28;19912;-69
2022/01/27 13:59:00;;;;;;;;;;;5.30;99.40;;;;;;5063385;28;20010;-69
2022/01/27 14:01:26;;;;;;;;;;;5.30;99.40;;;;;;5062570;28;19983;-69
2022/01/27 14:03:51;;;;;;;;;;;5.30;99.50;;;;;;5064628;28;19954;-69
2022/01/27 14:06:17;;;;;;;;;;;5.30;99.50;;;;;;5063800;28;20505;-69
2022/01/27 14:08:45;;;;;;;;;;;5.40;99.60;;;;;;5061477;28;19920;-69
2022/01/27 14:11:15;;;;;;;;;;;5.30;99.40;;;;;;5046466;28;19916;-69
2022/01/27 14:13:51;;;;;;;;;;;5.40;99.60;;;;;;5064053;28;19978;-69
2022/01/27 14:16:23;;;;;;;;;;;5.40;99.60;;;;;;5062565;28;19917;-69
2022/01/27 14:18:50;;;;;;;;;;;5.40;99.60;;;;;;5059025;28;19962;-69
2022/01/27 14:21:19;;;;;;;;;;;5.40;99.90;;;;;;5061711;28;19920;-69
2022/01/27 14:26:27;;;;;;;;;;;5.40;99.60;;;;;;5062936;28;19924;-69
2022/01/27 14:28:54;;;;;;;;;;;5.40;99.60;;;;;;5062918;28;19912;-69
2022/01/27 14:31:19;;;;;;;;;;;5.40;99.60;;;;;;5061160;28;20003;-69
2022/01/27 14:33:45;;;;;;;;;;;5.50;99.60;;;;;;5066109;28;19995;-69
2022/01/27 14:36:11;;;;;;;;;;;5.40;99.50;;;;;;5060097;28;19940;-69
2022/01/27 14:38:37;;;;;;;;;;;5.40;99.50;;;;;;5064837;28;20009;-69
2022/01/27 14:41:03;;;;;;;;;;;5.50;99.60;;;;;;5066377;28;20392;-69
2022/01/27 14:43:30;;;;;;;;;;;5.50;99.60;;;;;;5065963;28;19913;-69
2022/01/27 14:45:56;;;;;;;;;;;5.50;99.50;;;;;;5062919;28;19956;-69
2022/01/27 14:48:22;;;;;;;;;;;5.40;99.50;;;;;;5061680;28;20362;-69
2022/01/27 14:50:47;;;;;;;;;;;5.50;99.60;;;;;;5044556;28;19920;-69
2022/01/27 14:53:13;;;;;;;;;;;5.50;99.60;;;;;;5062698;28;19919;-69
2022/01/27 14:55:39;;;;;;;;;;;5.50;99.60;;;;;;5041082;28;19924;-69
2022/01/27 14:58:04;;;;;;;;;;;5.50;99.60;;;;;;5063035;28;19965;-69
2022/01/27 15:00:30;;;;;;;;;;;5.60;99.60;;;;;;5049468;28;19913;-69
2022/01/27 15:02:56;;;;;;;;;;;5.50;99.70;;;;;;5061477;28;19916;-69
2022/01/27 15:05:21;;;;;;;;;;;5.60;99.70;;;;;;5061010;28;19912;-69
2022/01/27 15:07:47;;;;;;;;;;;5.60;99.70;;;;;;5042773;28;19920;-69
2022/01/27 15:10:14;;;;;;;;;;;5.60;99.70;;;;;;5067289;28;20007;-69
2022/01/27 15:12:40;;;;;;;;;;;5.60;99.70;;;;;;5069660;28;19939;-69
2022/01/27 15:20:35;;;;;;;;;;;5.60;99.70;;;;;;5060699;28;19920;-70
2022/01/27 15:23:01;;;;;;;;;;;5.60;99.80;;;;;;5056379;28;19916;-69
2022/01/27 15:25:27;;;;;;;;;;;5.70;99.80;;;;;;5061834;28;19923;-69
2022/01/27 15:27:53;;;;;;;;;;;5.70;99.60;;;;;;5048893;28;19927;-69
2022/01/27 15:30:19;;;;;;;;;;;5.70;99.70;;;;;;5045033;28;19912;-69
2022/01/27 15:32:45;;;;;;;;;;;5.70;99.80;;;;;;5060191;28;19917;-69
2022/01/27 15:35:13;;;;;;;;;;;5.70;99.80;;;;;;5058380;28;19946;-69
2022/01/27 15:37:39;;;;;;;;;;;5.70;99.70;;;;;;5070258;28;19922;-69
2022/01/27 15:40:09;;;;;;;;;;;5.70;99.80;;;;;;5061648;28;19974;-69
2022/01/27 15:42:35;;;;;;;;;;;5.70;99.80;;;;;;5063606;28;19951;-69
2022/01/27 15:45:00;;;;;;;;;;;5.70;99.70;;;;;;5062037;28;20509;-69